createdAt,value
2017-08-28T00:01:59.468Z,79.10
2017-08-28T00:04:26.979Z,79.50
2017-08-28T00:06:54.482Z,79.90
2017-08-28T00:09:21.984Z,79.70
2017-08-28T00:11:49.527Z,79.90
2017-08-28T00:14:17.028Z,79.40
2017-08-28T00:16:44.549Z,79.50
2017-08-28T00:19:12.066Z,79.20
2017-08-28T00:21:39.608Z,79.80
2017-08-28T00:24:07.100Z,79.70
2017-08-28T00:26:34.637Z,80.00
2017-08-28T00:29:02.149Z,80.40
2017-08-28T00:31:29.676Z,80.40
2017-08-28T00:33:57.176Z,80.80
2017-08-28T00:36:24.660Z,81.10
2017-08-28T00:38:52.175Z,80.20
2017-08-28T00:41:20.504Z,80.20
2017-08-28T00:43:48.017Z,79.70
2017-08-28T00:46:15.505Z,80.30
2017-08-28T00:48:43.010Z,79.70
2017-08-28T00:51:10.508Z,79.60
2017-08-28T00:53:38.022Z,80.10
2017-08-28T00:56:05.507Z,80.20
2017-08-28T00:58:33.018Z,80.10
2017-08-28T01:01:00.520Z,80.30
2017-08-28T01:03:28.032Z,80.70
2017-08-28T01:05:55.532Z,81.00
2017-08-28T01:08:23.066Z,81.10
2017-08-28T01:10:50.553Z,81.50
2017-08-28T01:13:18.097Z,81.90
2017-08-28T01:15:45.595Z,82.30
2017-08-28T01:18:13.106Z,82.40
2017-08-28T01:20:40.626Z,82.90
2017-08-28T01:23:08.126Z,83.00
2017-08-28T01:25:35.620Z,82.20
2017-08-28T01:28:03.122Z,82.90
2017-08-28T01:30:30.720Z,82.00
2017-08-28T01:32:58.219Z,82.30
2017-08-28T01:35:25.746Z,82.60
2017-08-28T01:37:53.275Z,82.50
2017-08-28T01:40:20.770Z,82.80
2017-08-28T01:42:48.274Z,83.10
2017-08-28T01:45:15.781Z,83.40
2017-08-28T01:47:43.294Z,83.40
2017-08-28T01:50:10.786Z,83.70
2017-08-28T01:52:38.313Z,83.70
2017-08-28T01:55:05.825Z,83.60
2017-08-28T01:57:33.327Z,84.00
2017-08-28T02:00:00.860Z,84.30
2017-08-28T02:02:28.345Z,84.60
2017-08-28T02:04:55.862Z,85.10
2017-08-28T02:07:23.414Z,85.10
2017-08-28T02:09:50.933Z,85.70
2017-08-28T02:12:18.440Z,85.80
2017-08-28T02:14:45.954Z,85.80
2017-08-28T02:17:13.439Z,85.90
2017-08-28T02:19:40.974Z,86.10
2017-08-28T02:22:08.480Z,86.30
2017-08-28T02:24:35.979Z,86.60
2017-08-28T02:27:03.466Z,86.90
2017-08-28T02:29:30.959Z,86.90
2017-08-28T02:31:58.464Z,87.00
2017-08-28T02:34:25.978Z,87.20
2017-08-28T02:36:53.652Z,87.40
2017-08-28T02:39:21.196Z,87.60
2017-08-28T02:41:48.685Z,87.70
2017-08-28T02:44:16.213Z,87.80
2017-08-28T02:46:43.754Z,87.80
2017-08-28T02:49:11.360Z,88.20
2017-08-28T02:51:38.870Z,88.30
2017-08-28T02:54:06.396Z,88.40
2017-08-28T02:56:33.925Z,88.60
2017-08-28T02:59:01.445Z,88.70
2017-08-28T03:01:28.968Z,88.90
2017-08-28T03:03:56.466Z,89.10
2017-08-28T03:06:23.948Z,89.00
2017-08-28T03:08:51.478Z,89.10
2017-08-28T03:11:18.973Z,89.10
2017-08-28T03:13:46.474Z,89.50
2017-08-28T03:22:57.650Z,89.30
2017-08-28T03:25:25.163Z,90.10
2017-08-28T03:27:52.663Z,90.30
2017-08-28T03:30:20.177Z,90.60
2017-08-28T03:32:47.692Z,90.50
2017-08-28T03:35:15.193Z,90.50
2017-08-28T03:37:42.699Z,90.50
2017-08-28T03:40:10.205Z,90.50
2017-08-28T03:42:37.718Z,90.50
2017-08-28T03:45:05.233Z,90.60
2017-08-28T03:47:32.752Z,90.50
2017-08-28T03:50:00.293Z,90.40
2017-08-28T03:52:27.827Z,90.40
2017-08-28T03:54:55.328Z,90.50
2017-08-28T03:57:22.843Z,90.40
2017-08-28T03:59:50.342Z,90.70
2017-08-28T04:02:17.870Z,90.70
2017-08-28T04:04:45.380Z,90.90
2017-08-28T04:07:12.875Z,90.90
2017-08-28T04:09:40.369Z,90.30
2017-08-28T04:12:07.871Z,90.40
2017-08-28T04:14:35.389Z,90.40
2017-08-28T04:17:02.906Z,90.30
2017-08-28T04:19:30.444Z,90.60
2017-08-28T04:21:57.943Z,90.50
2017-08-28T04:24:25.426Z,90.40
2017-08-28T04:26:53.167Z,90.80
2017-08-28T04:29:20.705Z,90.60
2017-08-28T04:31:48.220Z,90.70
2017-08-28T04:34:15.755Z,90.90
2017-08-28T04:36:43.280Z,91.00
2017-08-28T04:39:10.788Z,90.70
2017-08-28T04:41:38.324Z,90.80
2017-08-28T04:44:05.810Z,90.80
2017-08-28T04:46:33.337Z,90.80
2017-08-28T04:49:00.816Z,90.80
2017-08-28T04:51:28.318Z,91.10
2017-08-28T04:53:55.842Z,91.20
2017-08-28T04:56:23.404Z,91.20
2017-08-28T04:58:50.912Z,91.30
2017-08-28T05:01:18.442Z,91.30
2017-08-28T05:03:45.948Z,91.20
2017-08-28T05:06:13.533Z,91.00
2017-08-28T05:08:41.021Z,90.90
2017-08-28T05:11:08.519Z,90.90
2017-08-28T05:13:36.060Z,91.00
2017-08-28T05:16:03.580Z,90.80
2017-08-28T05:18:31.701Z,91.00
2017-08-28T05:20:59.220Z,90.90
2017-08-28T05:23:26.745Z,91.00
2017-08-28T05:25:54.240Z,90.60
2017-08-28T05:28:21.748Z,90.70
2017-08-28T05:30:49.280Z,90.40
2017-08-28T05:33:16.800Z,90.50
2017-08-28T05:35:44.329Z,90.40
2017-08-28T05:38:11.828Z,90.50
2017-08-28T05:40:39.360Z,90.60
2017-08-28T05:43:06.917Z,90.70
2017-08-28T05:45:34.415Z,90.90
2017-08-28T05:48:02.321Z,91.10
2017-08-28T05:50:29.827Z,91.30
2017-08-28T05:52:57.462Z,90.50
2017-08-28T05:55:24.945Z,90.80
2017-08-28T05:57:52.476Z,90.30
2017-08-28T06:00:19.983Z,90.40
2017-08-28T06:02:47.491Z,90.40
2017-08-28T06:05:15.026Z,90.20
2017-08-28T06:07:42.513Z,90.30
2017-08-28T06:10:09.996Z,90.40
2017-08-28T06:12:37.512Z,90.30
2017-08-28T06:15:05.070Z,89.90
2017-08-28T06:17:32.617Z,89.60
2017-08-28T06:20:00.199Z,89.60
2017-08-28T06:22:27.719Z,89.30
2017-08-28T06:24:55.240Z,88.90
2017-08-28T06:27:22.781Z,88.80
2017-08-28T06:29:50.290Z,89.00
2017-08-28T06:32:17.813Z,89.70
2017-08-28T06:34:45.337Z,89.50
2017-08-28T06:37:12.834Z,89.40
2017-08-28T06:39:40.400Z,89.70
2017-08-28T06:42:07.907Z,89.60
2017-08-28T06:44:35.415Z,89.00
2017-08-28T06:47:02.934Z,88.90
2017-08-28T06:49:30.448Z,89.00
2017-08-28T06:51:57.950Z,89.50
2017-08-28T06:54:25.501Z,89.90
2017-08-28T06:56:53.021Z,89.30
2017-08-28T06:59:20.586Z,89.10
2017-08-28T07:01:48.123Z,89.30
2017-08-28T07:04:15.625Z,89.50
2017-08-28T07:06:43.117Z,90.00
2017-08-28T07:09:10.644Z,89.50
2017-08-28T07:11:38.156Z,89.40
2017-08-28T07:14:05.709Z,88.40
2017-08-28T07:16:33.255Z,88.50
2017-08-28T07:19:00.777Z,88.80
2017-08-28T07:21:28.298Z,88.60
2017-08-28T07:23:55.788Z,88.70
2017-08-28T07:26:23.306Z,89.00
2017-08-28T07:28:50.788Z,88.80
2017-08-28T07:31:18.316Z,89.00
2017-08-28T07:33:45.810Z,88.20
2017-08-28T07:36:13.446Z,88.10
2017-08-28T07:38:41.002Z,87.60
2017-08-28T07:41:08.504Z,87.60
2017-08-28T07:43:37.654Z,87.10
2017-08-28T07:46:05.188Z,87.40
2017-08-28T07:48:32.683Z,87.70
2017-08-28T07:51:00.186Z,85.90
2017-08-28T07:53:27.738Z,85.90
2017-08-28T07:55:55.272Z,85.40
2017-08-28T07:58:22.785Z,85.80
2017-08-28T08:00:50.290Z,85.70
2017-08-28T08:03:17.797Z,84.60
2017-08-28T08:05:45.301Z,83.20
2017-08-28T08:08:12.820Z,82.30
2017-08-28T08:10:40.352Z,81.80
2017-08-28T08:13:07.883Z,81.40
2017-08-28T08:15:35.398Z,81.90
2017-08-28T08:18:02.909Z,81.20
2017-08-28T08:20:30.400Z,81.50
2017-08-28T08:22:57.914Z,82.20
2017-08-28T08:25:25.626Z,81.10
2017-08-28T08:27:53.150Z,80.60
2017-08-28T08:30:20.668Z,78.00
2017-08-28T08:32:48.179Z,76.70
2017-08-28T08:35:15.710Z,75.90
2017-08-28T08:37:43.502Z,75.60
2017-08-28T08:40:11.036Z,76.40
2017-08-28T08:42:38.530Z,73.00
2017-08-28T08:45:06.050Z,72.90
2017-08-28T08:47:33.575Z,72.40
2017-08-28T08:50:01.077Z,71.40
2017-08-28T08:52:28.589Z,72.30
2017-08-28T08:54:56.138Z,73.70
2017-08-28T08:57:23.652Z,73.40
2017-08-28T08:59:51.153Z,72.50
2017-08-28T09:02:18.789Z,73.00
2017-08-28T09:04:46.322Z,72.30
2017-08-28T09:07:13.820Z,71.40
2017-08-28T09:09:41.321Z,71.40
2017-08-28T09:12:08.828Z,71.30
2017-08-28T09:14:36.335Z,72.20
2017-08-28T09:17:03.861Z,70.40
2017-08-28T09:19:31.363Z,70.50
2017-08-28T09:21:58.874Z,70.60
2017-08-28T09:24:26.396Z,70.70
2017-08-28T09:26:53.882Z,72.50
2017-08-28T09:29:21.415Z,71.50
2017-08-28T09:31:48.939Z,71.40
2017-08-28T09:34:16.465Z,71.60
2017-08-28T09:36:43.966Z,70.70
2017-08-28T09:39:11.473Z,71.50
2017-08-28T09:41:39.001Z,70.00
2017-08-28T09:44:06.574Z,69.20
2017-08-28T09:46:34.099Z,68.70
2017-08-28T09:49:01.609Z,67.50
2017-08-28T09:51:29.116Z,67.80
2017-08-28T09:53:56.618Z,67.00
2017-08-28T09:56:24.143Z,61.70
2017-08-28T09:58:52.435Z,60.80
2017-08-28T10:01:20.000Z,60.40
2017-08-28T10:03:47.526Z,60.70
2017-08-28T10:06:15.045Z,60.80
2017-08-28T10:08:42.545Z,60.50
2017-08-28T10:11:10.066Z,59.20
2017-08-28T10:13:37.605Z,58.70
2017-08-28T10:16:05.807Z,58.60
2017-08-28T10:18:33.335Z,58.70
2017-08-28T10:21:00.834Z,58.80
2017-08-28T10:23:28.356Z,58.40
2017-08-28T10:25:55.851Z,59.30
2017-08-28T10:28:23.369Z,59.20
2017-08-28T10:30:50.895Z,59.50
2017-08-28T10:33:18.384Z,56.30
2017-08-28T10:35:45.918Z,55.10
2017-08-28T10:38:13.477Z,52.30
2017-08-28T10:40:40.998Z,49.00
2017-08-28T10:43:08.515Z,45.60
2017-08-28T10:45:36.017Z,44.20
2017-08-28T10:48:03.529Z,42.90
2017-08-28T10:50:31.728Z,44.40
2017-08-28T10:53:16.036Z,45.70
2017-08-28T10:55:43.608Z,47.70
2017-08-28T10:58:11.088Z,45.70
2017-08-28T11:00:38.664Z,47.00
2017-08-28T11:03:06.171Z,47.40
2017-08-28T11:05:33.714Z,48.80
2017-08-28T11:08:01.244Z,49.30
2017-08-28T11:10:28.753Z,49.40
2017-08-28T11:12:56.254Z,49.60
2017-08-28T11:15:23.838Z,50.60
2017-08-28T11:17:51.395Z,51.40
2017-08-28T11:20:18.914Z,52.40
2017-08-28T11:22:46.439Z,51.30
2017-08-28T11:25:13.947Z,51.90
2017-08-28T11:27:41.552Z,52.60
2017-08-28T11:30:09.055Z,50.70
2017-08-28T11:32:36.585Z,51.40
2017-08-28T11:35:04.148Z,51.80
2017-08-28T11:37:31.645Z,52.80
2017-08-28T11:39:59.147Z,53.30
2017-08-28T11:42:26.667Z,53.00
2017-08-28T11:44:54.970Z,53.40
2017-08-28T11:47:22.522Z,53.40
2017-08-28T11:49:50.019Z,52.00
2017-08-28T11:52:17.526Z,52.80
2017-08-28T11:54:45.043Z,53.90
2017-08-28T11:57:12.559Z,53.50
2017-08-28T11:59:40.099Z,51.40
2017-08-28T12:02:07.615Z,50.80
2017-08-28T12:04:35.174Z,50.80
2017-08-28T12:07:02.676Z,50.30
2017-08-28T12:09:30.175Z,50.60
2017-08-28T12:11:57.677Z,51.00
2017-08-28T12:14:25.229Z,51.40
2017-08-28T12:16:52.772Z,50.10
2017-08-28T12:19:20.310Z,46.80
2017-08-28T12:21:47.812Z,41.30
2017-08-28T12:24:15.330Z,37.00
2017-08-28T12:26:42.871Z,36.90
2017-08-28T12:29:10.394Z,36.00
2017-08-28T12:31:37.926Z,34.60
2017-08-28T12:34:05.429Z,34.40
2017-08-28T12:36:32.920Z,35.20
2017-08-28T12:39:00.522Z,35.10
2017-08-28T12:41:28.057Z,36.10
2017-08-28T12:43:55.570Z,35.40
2017-08-28T12:46:23.086Z,35.50
2017-08-28T12:48:50.620Z,37.00
2017-08-28T12:51:18.154Z,39.00
2017-08-28T12:53:45.640Z,40.80
2017-08-28T12:56:13.187Z,41.70
2017-08-28T12:58:40.694Z,42.20
2017-08-28T13:01:08.211Z,41.40
2017-08-28T13:03:35.706Z,40.90
2017-08-28T13:06:03.244Z,39.60
2017-08-28T13:08:30.784Z,40.00
2017-08-28T13:10:58.307Z,40.50
2017-08-28T13:13:25.877Z,41.40
2017-08-28T13:15:53.377Z,41.20
2017-08-28T13:18:20.884Z,42.00
2017-08-28T13:20:48.399Z,41.90
2017-08-28T13:23:15.890Z,42.10
2017-08-28T13:25:43.393Z,42.10
2017-08-28T13:28:10.926Z,41.90
2017-08-28T13:30:38.434Z,41.50
2017-08-28T13:33:05.935Z,40.20
2017-08-28T13:35:33.469Z,39.50
2017-08-28T13:38:01.040Z,40.10
2017-08-28T13:40:28.553Z,40.60
2017-08-28T13:42:56.073Z,40.40
2017-08-28T13:45:23.585Z,41.00
2017-08-28T13:47:51.104Z,41.00
2017-08-28T13:50:18.634Z,41.10
2017-08-28T13:52:46.139Z,40.80
2017-08-28T13:55:13.647Z,40.90
2017-08-28T13:57:41.160Z,41.30
2017-08-28T14:00:08.665Z,41.10
2017-08-28T14:02:36.233Z,42.50
2017-08-28T14:05:03.751Z,42.30
2017-08-28T14:07:31.295Z,43.20
2017-08-28T14:09:58.835Z,43.50
2017-08-28T14:12:26.345Z,43.60
2017-08-28T14:14:53.876Z,44.40
2017-08-28T14:17:21.399Z,43.20
2017-08-28T14:19:48.902Z,44.00
2017-08-28T14:22:16.434Z,43.10
2017-08-28T14:24:43.934Z,44.00
2017-08-28T14:27:11.463Z,43.70
2017-08-28T14:29:38.978Z,43.00
2017-08-28T14:32:06.498Z,43.10
2017-08-28T14:34:34.178Z,42.60
2017-08-28T14:37:01.698Z,39.50
2017-08-28T14:39:29.248Z,37.50
2017-08-28T14:41:56.745Z,36.70
2017-08-28T14:44:24.265Z,36.90
2017-08-28T14:46:51.796Z,38.00
2017-08-28T14:49:19.298Z,38.60
2017-08-28T14:51:46.839Z,38.50
2017-08-28T14:54:14.393Z,39.60
2017-08-28T14:56:41.987Z,40.60
2017-08-28T14:59:09.513Z,40.50
2017-08-28T15:01:37.049Z,41.30
2017-08-28T15:04:04.609Z,41.60
2017-08-28T15:06:32.151Z,41.60
2017-08-28T15:08:59.697Z,41.30
2017-08-28T15:11:27.241Z,41.80
2017-08-28T15:13:54.776Z,41.00
2017-08-28T15:16:22.287Z,42.80
2017-08-28T15:18:49.791Z,43.20
2017-08-28T15:21:17.325Z,42.20
2017-08-28T15:23:44.824Z,41.60
2017-08-28T15:26:12.347Z,39.90
2017-08-28T15:28:39.881Z,39.80
2017-08-28T15:31:07.431Z,40.50
2017-08-28T15:33:34.963Z,40.70
2017-08-28T15:36:02.466Z,42.30
2017-08-28T15:38:30.004Z,41.80
2017-08-28T15:40:57.526Z,42.20
2017-08-28T15:43:25.071Z,42.30
2017-08-28T15:45:52.631Z,41.80
2017-08-28T15:48:20.232Z,42.10
2017-08-28T15:50:47.753Z,42.20
2017-08-28T15:53:15.331Z,42.70
2017-08-28T15:55:42.839Z,41.80
2017-08-28T15:58:10.352Z,42.60
2017-08-28T16:00:37.861Z,42.20
2017-08-28T16:03:05.417Z,42.40
2017-08-28T16:05:32.922Z,41.90
2017-08-28T16:08:00.507Z,41.10
2017-08-28T16:10:28.054Z,39.90
2017-08-28T16:12:55.547Z,40.40
2017-08-28T16:15:23.098Z,40.20
2017-08-28T16:17:53.614Z,39.00
2017-08-28T16:20:21.156Z,39.60
2017-08-28T16:22:48.646Z,40.10
2017-08-28T16:25:16.169Z,41.30
2017-08-28T16:27:48.770Z,40.50
2017-08-28T16:30:16.298Z,40.10
2017-08-28T16:32:43.845Z,39.70
2017-08-28T16:35:11.351Z,40.80
2017-08-28T16:37:38.821Z,41.00
2017-08-28T16:40:07.560Z,41.10
2017-08-28T16:42:35.079Z,40.80
2017-08-28T16:45:02.628Z,41.30
2017-08-28T16:47:30.141Z,41.30
2017-08-28T16:49:57.787Z,41.80
2017-08-28T16:52:25.352Z,42.00
2017-08-28T16:54:52.882Z,41.80
2017-08-28T16:57:20.473Z,42.30
2017-08-28T16:59:48.001Z,42.50
2017-08-28T17:02:15.517Z,42.80
2017-08-28T17:04:43.123Z,43.10
2017-08-28T17:07:10.642Z,42.80
2017-08-28T17:09:45.040Z,42.60
2017-08-28T17:12:12.591Z,42.80
2017-08-28T17:14:41.078Z,42.70
2017-08-28T17:17:08.612Z,42.50
2017-08-28T17:19:36.133Z,42.70
2017-08-28T17:22:03.664Z,42.60
2017-08-28T17:24:31.185Z,42.90
2017-08-28T17:26:58.684Z,43.00
2017-08-28T17:29:26.567Z,43.10
2017-08-28T17:31:54.064Z,43.20
2017-08-28T17:34:21.587Z,43.20
2017-08-28T17:36:49.091Z,44.30
2017-08-28T17:39:16.613Z,43.00
2017-08-28T17:41:44.137Z,43.00
2017-08-28T17:44:11.633Z,43.70
2017-08-28T17:46:39.187Z,45.70
2017-08-28T17:49:06.753Z,44.60
2017-08-28T17:51:34.353Z,45.70
2017-08-28T17:54:01.878Z,45.90
2017-08-28T17:56:29.399Z,46.50
2017-08-28T17:58:56.946Z,46.90
2017-08-28T18:01:24.521Z,47.10
2017-08-28T18:03:52.053Z,47.50
2017-08-28T18:06:19.573Z,47.80
2017-08-28T18:08:47.160Z,47.80
2017-08-28T18:11:14.697Z,47.70
2017-08-28T18:13:42.182Z,49.10
2017-08-28T18:16:09.719Z,49.70
2017-08-28T18:18:37.239Z,50.00
2017-08-28T18:21:04.736Z,50.40
2017-08-28T18:23:32.304Z,50.70
2017-08-28T18:25:59.827Z,51.10
2017-08-28T18:28:27.374Z,51.30
2017-08-28T18:30:54.873Z,51.60
2017-08-28T18:33:22.586Z,52.30
2017-08-28T18:35:50.125Z,52.90
2017-08-28T18:38:17.683Z,53.30
2017-08-28T18:40:45.189Z,53.70
2017-08-28T18:43:12.697Z,54.10
2017-08-28T18:45:40.222Z,54.40
2017-08-28T18:48:07.712Z,54.70
2017-08-28T18:50:35.254Z,55.10
2017-08-28T18:53:02.858Z,55.60
2017-08-28T18:55:30.377Z,55.70
2017-08-28T18:57:57.908Z,56.20
2017-08-28T19:00:25.415Z,56.70
2017-08-28T19:02:52.935Z,57.20
2017-08-28T19:05:20.448Z,57.80
2017-08-28T19:07:47.970Z,58.20
2017-08-28T19:10:15.522Z,58.80
2017-08-28T19:12:43.051Z,59.00
2017-08-28T19:15:10.577Z,59.50
2017-08-28T19:17:38.140Z,59.60
2017-08-28T19:20:05.792Z,60.20
2017-08-28T19:22:33.319Z,61.00
2017-08-28T19:25:00.839Z,61.50
2017-08-28T19:27:28.506Z,61.80
2017-08-28T19:29:56.026Z,62.30
2017-08-28T19:32:23.581Z,62.50
2017-08-28T19:34:57.512Z,63.10
2017-08-28T19:37:25.153Z,63.40
2017-08-28T19:39:52.731Z,63.70
2017-08-28T19:42:20.230Z,64.20
2017-08-28T19:44:47.936Z,64.80
2017-08-28T19:47:15.445Z,65.10
2017-08-28T19:49:43.057Z,65.80
2017-08-28T19:52:10.593Z,66.20
2017-08-28T19:54:38.213Z,66.60
2017-08-28T19:57:05.728Z,67.10
2017-08-28T19:59:33.265Z,67.30
2017-08-28T20:02:00.788Z,67.50
2017-08-28T20:04:28.456Z,67.60
2017-08-28T20:06:56.007Z,68.10
2017-08-28T20:09:33.034Z,68.20
2017-08-28T20:12:00.607Z,68.50
2017-08-28T20:14:28.133Z,68.80
2017-08-28T20:16:55.621Z,69.30
2017-08-28T20:19:23.192Z,69.70
2017-08-28T20:21:50.747Z,70.10
2017-08-28T20:24:18.283Z,71.40
2017-08-28T20:26:45.927Z,70.80
2017-08-28T20:29:13.477Z,70.90
2017-08-28T20:31:41.059Z,71.00
2017-08-28T20:34:09.353Z,71.60
2017-08-28T20:36:36.956Z,72.10
2017-08-28T20:39:04.704Z,72.70
2017-08-28T20:41:32.880Z,72.90
2017-08-28T20:44:00.427Z,73.20
2017-08-28T20:46:27.985Z,73.60
2017-08-28T20:48:55.521Z,73.70
2017-08-28T20:51:23.049Z,74.10
2017-08-28T20:53:50.613Z,74.60
2017-08-28T20:56:18.152Z,74.60
2017-08-28T20:58:45.680Z,74.60
2017-08-28T21:01:13.192Z,74.80
2017-08-28T21:03:40.743Z,75.30
2017-08-28T21:06:08.273Z,75.20
2017-08-28T21:08:35.790Z,75.50
2017-08-28T21:11:03.330Z,75.80
2017-08-28T21:13:30.885Z,75.80
2017-08-28T21:15:58.441Z,76.30
2017-08-28T21:18:25.960Z,76.50
2017-08-28T21:20:53.494Z,76.50
2017-08-28T21:23:21.095Z,76.40
2017-08-28T21:25:48.600Z,76.30
2017-08-28T21:28:16.137Z,76.60
2017-08-28T21:30:43.729Z,76.70
2017-08-28T21:33:11.219Z,77.00
2017-08-28T21:35:38.864Z,77.00
2017-08-28T21:38:06.391Z,77.20
2017-08-28T21:40:33.890Z,77.50
2017-08-28T21:43:01.415Z,77.60
2017-08-28T21:45:28.935Z,77.90
2017-08-28T21:47:56.493Z,78.20
2017-08-28T21:50:24.029Z,78.60
2017-08-28T21:52:51.570Z,78.80
2017-08-28T21:55:19.095Z,78.90
2017-08-28T21:57:46.597Z,79.20
2017-08-28T22:00:14.095Z,79.60
2017-08-28T22:02:41.657Z,79.70
2017-08-28T22:05:09.275Z,79.80
2017-08-28T22:07:36.778Z,80.00
2017-08-28T22:10:04.304Z,80.50
2017-08-28T22:12:31.815Z,80.60
2017-08-28T22:14:59.339Z,80.70
2017-08-28T22:17:26.895Z,81.20
2017-08-28T22:19:54.398Z,81.40
2017-08-28T22:22:21.932Z,81.50
2017-08-28T22:24:49.457Z,81.70
2017-08-28T22:27:16.952Z,82.10
2017-08-28T22:29:44.464Z,82.30
2017-08-28T22:32:11.959Z,83.10
2017-08-28T22:34:39.474Z,82.60
2017-08-28T22:37:07.115Z,82.90
2017-08-28T22:39:34.762Z,82.80
2017-08-28T22:42:03.292Z,82.80
2017-08-28T22:44:30.851Z,82.90
2017-08-28T22:46:58.404Z,82.90
2017-08-28T22:49:25.914Z,83.00
2017-08-28T22:51:53.499Z,83.20
2017-08-28T22:54:21.110Z,83.30
2017-08-28T22:56:48.681Z,83.30
2017-08-28T22:59:16.234Z,83.40
2017-08-28T23:01:43.757Z,83.30
2017-08-28T23:04:11.336Z,83.60
2017-08-28T23:06:38.850Z,83.80
2017-08-28T23:09:06.373Z,84.10
2017-08-28T23:11:33.897Z,84.10
2017-08-28T23:14:01.496Z,84.20
2017-08-28T23:16:29.003Z,84.40
2017-08-28T23:18:56.530Z,84.40
2017-08-28T23:21:24.058Z,84.50
2017-08-28T23:23:51.593Z,84.90
2017-08-28T23:26:19.124Z,85.00
2017-08-28T23:28:46.749Z,85.00
2017-08-28T23:31:14.279Z,85.00
2017-08-28T23:33:41.799Z,85.20
2017-08-28T23:36:09.608Z,85.40
2017-08-28T23:38:37.112Z,86.40
2017-08-28T23:41:04.593Z,85.70
2017-08-28T23:43:32.098Z,86.00
2017-08-28T23:45:59.631Z,86.20
2017-08-28T23:48:27.158Z,86.40
2017-08-28T23:50:54.671Z,86.60
2017-08-28T23:53:22.215Z,86.80
2017-08-28T23:55:49.842Z,87.00
2017-08-28T23:58:17.421Z,87.10
